createdAt,value
2019-06-07T00:00:40.120Z,5.00
2019-06-07T00:03:10.583Z,4.37
2019-06-07T00:05:39.325Z,4.30
2019-06-07T00:08:17.148Z,5.43
2019-06-07T00:10:40.800Z,3.97
2019-06-07T00:13:12.922Z,6.67
2019-06-07T00:15:42.211Z,5.63
2019-06-07T00:18:15.035Z,5.57
2019-06-07T00:20:43.547Z,8.80
2019-06-07T00:23:17.232Z,5.47
2019-06-07T00:25:44.988Z,4.40
2019-06-07T00:28:17.290Z,6.90
2019-06-07T00:30:51.904Z,11.77
2019-06-07T00:33:23.367Z,4.10
2019-06-07T00:35:49.659Z,8.93
2019-06-07T00:38:21.760Z,5.47
2019-06-07T00:40:50.269Z,5.73
2019-06-07T00:43:25.817Z,5.13
2019-06-07T00:45:51.169Z,7.77
2019-06-07T00:48:30.823Z,6.90
2019-06-07T00:50:54.827Z,8.00
2019-06-07T00:53:31.647Z,7.20
2019-06-07T00:55:55.471Z,7.63
2019-06-07T00:58:27.914Z,7.60
2019-06-07T01:00:57.010Z,9.93
2019-06-07T01:03:26.913Z,5.90
2019-06-07T01:05:56.425Z,14.23
2019-06-07T01:08:29.981Z,6.97
2019-06-07T01:11:00.133Z,9.07
2019-06-07T01:13:30.080Z,6.07
2019-06-07T01:15:59.822Z,10.87
2019-06-07T01:18:41.325Z,8.90
2019-06-07T01:21:01.072Z,9.13
2019-06-07T01:26:01.972Z,9.90
2019-06-07T01:28:33.030Z,9.07
2019-06-07T01:31:03.135Z,9.87
2019-06-07T01:33:50.192Z,15.00
2019-06-07T01:36:04.116Z,12.80
2019-06-07T01:38:35.943Z,9.30
2019-06-07T01:41:05.336Z,14.97
2019-06-07T01:43:35.065Z,9.30
2019-06-07T01:46:04.885Z,15.03
2019-06-07T01:48:48.897Z,14.60
2019-06-07T01:51:05.817Z,13.03
2019-06-07T01:53:37.312Z,11.20
2019-06-07T01:56:06.798Z,11.43
2019-06-07T01:58:36.310Z,14.50
2019-06-07T02:01:06.553Z,12.33
2019-06-07T02:03:36.493Z,11.90
2019-06-07T02:06:06.503Z,15.37
2019-06-07T02:08:39.093Z,13.40
2019-06-07T02:11:10.173Z,13.30
2019-06-07T02:13:39.886Z,15.37
2019-06-07T02:16:09.947Z,15.35
2019-06-07T02:19:00.641Z,13.83
2019-06-07T02:21:11.313Z,14.87
2019-06-07T02:23:41.115Z,20.33
2019-06-07T02:26:10.661Z,14.83
2019-06-07T02:28:45.627Z,17.80
2019-06-07T02:31:11.588Z,15.37
2019-06-07T02:33:41.772Z,14.00
2019-06-07T02:36:13.120Z,17.30
2019-06-07T02:38:42.882Z,15.50
2019-06-07T02:41:12.484Z,18.83
2019-06-07T02:43:41.750Z,16.50
2019-06-07T02:46:30.602Z,15.57
2019-06-07T02:48:55.713Z,18.30
2019-06-07T02:51:32.304Z,17.13
2019-06-07T02:53:57.041Z,16.37
2019-06-07T02:56:39.073Z,19.10
2019-06-07T02:58:58.186Z,16.20
2019-06-07T03:01:36.647Z,16.90
2019-06-07T03:04:03.375Z,26.87
2019-06-07T03:06:39.301Z,22.70
2019-06-07T03:09:07.930Z,21.70
2019-06-07T03:11:43.259Z,19.90
2019-06-07T03:14:13.786Z,17.87
2019-06-07T03:16:52.817Z,19.47
2019-06-07T03:19:31.340Z,20.80
2019-06-07T03:22:03.906Z,21.90
2019-06-07T03:24:39.150Z,23.67
2019-06-07T03:27:34.036Z,18.57
2019-06-07T03:29:41.291Z,23.67
2019-06-07T03:32:11.031Z,21.67
2019-06-07T03:34:43.534Z,21.20
2019-06-07T03:37:12.099Z,26.13
2019-06-07T03:39:41.576Z,23.33
2019-06-07T03:42:11.411Z,19.97
2019-06-07T03:44:41.783Z,24.53
2019-06-07T03:47:11.378Z,21.93
2019-06-07T03:49:42.583Z,21.87
2019-06-07T03:52:12.394Z,24.00
2019-06-07T03:54:42.214Z,22.77
2019-06-07T03:57:12.363Z,27.37
2019-06-07T03:59:42.061Z,20.87
2019-06-07T04:02:12.237Z,20.10
2019-06-07T04:04:42.073Z,22.33
2019-06-07T04:07:12.459Z,23.30
2019-06-07T04:09:43.010Z,21.00
2019-06-07T04:12:13.217Z,21.30
2019-06-07T04:14:43.115Z,27.17
2019-06-07T04:17:12.552Z,21.97
2019-06-07T04:19:43.548Z,27.53
2019-06-07T04:22:15.371Z,24.67
2019-06-07T04:24:44.799Z,20.00
2019-06-07T04:27:19.114Z,27.17
2019-06-07T04:30:06.388Z,24.07
2019-06-07T04:32:20.294Z,22.03
2019-06-07T04:34:50.587Z,20.17
2019-06-07T04:37:21.132Z,23.20
2019-06-07T04:39:51.848Z,21.13
2019-06-07T04:42:21.465Z,20.73
2019-06-07T04:44:51.551Z,20.83
2019-06-07T04:47:22.309Z,18.03
2019-06-07T04:49:53.704Z,18.90
2019-06-07T04:52:23.874Z,19.13
2019-06-07T04:54:54.006Z,21.90
2019-06-07T04:57:23.582Z,19.73
2019-06-07T05:00:11.921Z,19.60
2019-06-07T05:02:25.172Z,20.00
2019-06-07T05:04:54.867Z,18.77
2019-06-07T05:07:24.769Z,24.27
2019-06-07T05:09:54.978Z,25.83
2019-06-07T05:12:24.530Z,18.90
2019-06-07T05:14:54.159Z,21.13
2019-06-07T05:17:23.667Z,19.77
2019-06-07T05:19:53.735Z,17.93
2019-06-07T05:22:23.320Z,24.70
2019-06-07T05:24:52.820Z,18.00
2019-06-07T05:27:24.752Z,16.80
2019-06-07T05:30:09.619Z,19.47
2019-06-07T05:32:26.373Z,19.13
2019-06-07T05:34:56.001Z,18.43
2019-06-07T05:37:45.828Z,21.87
2019-06-07T05:40:19.509Z,18.97
2019-06-07T05:42:49.579Z,17.93
2019-06-07T05:45:27.886Z,20.37
2019-06-07T05:48:00.129Z,25.87
2019-06-07T05:50:41.473Z,22.20
2019-06-07T05:53:04.313Z,19.43
2019-06-07T05:55:35.273Z,21.47
2019-06-07T05:58:05.109Z,24.60
2019-06-07T06:00:36.480Z,19.17
2019-06-07T06:03:07.948Z,25.70
2019-06-07T06:05:45.752Z,23.33
2019-06-07T06:08:12.331Z,18.63
2019-06-07T06:10:46.124Z,20.37
2019-06-07T06:13:13.083Z,15.77
2019-06-07T06:16:00.457Z,16.70
2019-06-07T06:18:18.085Z,24.10
2019-06-07T06:21:18.780Z,15.70
2019-06-07T06:23:22.172Z,17.20
2019-06-07T06:25:56.914Z,16.73
2019-06-07T06:28:23.819Z,17.20
2019-06-07T06:31:00.948Z,16.20
2019-06-07T06:33:34.443Z,16.37
2019-06-07T06:36:01.898Z,17.33
2019-06-07T06:38:31.776Z,16.07
2019-06-07T06:41:15.155Z,15.87
2019-06-07T06:43:34.718Z,12.93
2019-06-07T06:46:04.533Z,13.33
2019-06-07T06:48:34.624Z,14.73
2019-06-07T06:51:04.316Z,13.33
2019-06-07T06:53:36.778Z,12.27
2019-06-07T06:56:06.715Z,14.77
2019-06-07T06:59:21.438Z,10.57
2019-06-07T07:01:11.889Z,12.27
2019-06-07T07:04:00.164Z,13.07
2019-06-07T07:06:25.745Z,12.80
2019-06-07T07:08:50.748Z,15.47
2019-06-07T07:11:23.090Z,12.57
2019-06-07T07:13:55.837Z,11.47
2019-06-07T07:16:25.329Z,11.40
2019-06-07T07:19:01.164Z,10.00
2019-06-07T07:21:34.657Z,10.70
2019-06-07T07:24:21.136Z,9.80
2019-06-07T07:26:37.863Z,13.53
2019-06-07T07:29:08.109Z,9.53
2019-06-07T07:31:45.605Z,9.43
2019-06-07T07:34:33.418Z,12.37
2019-06-07T07:37:01.711Z,9.87
2019-06-07T07:40:55.439Z,9.30
2019-06-07T07:42:47.550Z,10.13
2019-06-07T07:45:23.056Z,19.83
2019-06-07T07:48:13.297Z,10.17
2019-06-07T07:50:32.261Z,8.33
2019-06-07T07:53:16.026Z,9.53
2019-06-07T07:55:59.717Z,11.27
2019-06-07T07:58:25.635Z,9.67
2019-06-07T08:01:09.006Z,10.53
2019-06-07T08:03:26.323Z,11.00
2019-06-07T08:06:18.143Z,8.03
2019-06-07T08:08:48.760Z,8.83
2019-06-07T08:11:18.473Z,8.90
2019-06-07T08:13:50.493Z,10.33
2019-06-07T08:16:27.151Z,11.13
2019-06-07T08:19:03.836Z,8.83
2019-06-07T08:21:56.429Z,9.27
2019-06-07T08:24:26.281Z,9.10
2019-06-07T08:27:17.869Z,7.43
2019-06-07T08:29:45.641Z,9.77
2019-06-07T08:32:23.032Z,8.77
2019-06-07T08:34:56.797Z,10.47
2019-06-07T08:38:14.017Z,9.77
2019-06-07T08:48:46.824Z,8.20
2019-06-07T09:01:26.691Z,8.23
2019-06-07T09:04:09.850Z,10.00
2019-06-07T09:12:20.378Z,10.90
2019-06-07T09:15:07.229Z,13.93
2019-06-07T09:18:29.545Z,8.13
2019-06-07T09:20:35.608Z,8.47
2019-06-07T09:22:48.764Z,7.20
2019-06-07T09:25:24.343Z,7.00
2019-06-07T09:28:10.162Z,5.97
2019-06-07T09:30:47.227Z,7.20
2019-06-07T09:33:17.709Z,6.53
2019-06-07T09:35:49.134Z,6.20
2019-06-07T09:38:30.199Z,6.00
2019-06-07T09:41:07.421Z,9.60
2019-06-07T09:44:10.815Z,8.97
2019-06-07T09:46:45.824Z,9.50
2019-06-07T09:49:32.268Z,10.37
2019-06-07T09:52:02.676Z,8.20
2019-06-07T09:55:12.467Z,7.43
2019-06-07T09:58:06.810Z,10.27
2019-06-07T10:04:09.073Z,11.50
2019-06-07T10:12:28.830Z,8.60
2019-06-07T10:15:05.419Z,12.33
2019-06-07T10:23:46.508Z,8.97
2019-06-07T10:28:59.748Z,8.10
2019-06-07T10:32:20.105Z,10.77
2019-06-07T10:34:51.744Z,8.70
2019-06-07T10:37:28.247Z,10.00
2019-06-07T10:40:05.345Z,9.80
2019-06-07T10:43:04.945Z,12.57
2019-06-07T10:45:41.975Z,12.60
2019-06-07T10:48:20.125Z,15.87
2019-06-07T10:50:53.545Z,9.30
2019-06-07T10:53:33.795Z,6.50
2019-06-07T10:56:15.146Z,12.80
2019-06-07T10:58:47.004Z,9.17
2019-06-07T11:02:01.413Z,8.03
2019-06-07T11:07:50.322Z,7.07
2019-06-07T11:14:15.470Z,11.60
2019-06-07T11:16:49.317Z,9.13
2019-06-07T11:20:12.417Z,10.23
2019-06-07T11:23:03.166Z,11.77
2019-06-07T11:25:46.291Z,8.37
2019-06-07T11:28:41.915Z,13.97
2019-06-07T11:31:26.354Z,6.67
2019-06-07T11:34:10.491Z,8.13
2019-06-07T11:36:51.068Z,12.93
2019-06-07T11:39:31.794Z,11.90
2019-06-07T11:42:07.788Z,8.50
2019-06-07T11:44:56.165Z,7.70
2019-06-07T11:47:30.975Z,8.80
2019-06-07T11:50:21.967Z,7.53
2019-06-07T11:52:53.672Z,8.57
2019-06-07T11:55:27.184Z,10.47
2019-06-07T11:57:57.922Z,10.87
2019-06-07T12:00:28.550Z,9.33
2019-06-07T12:03:18.086Z,12.30
2019-06-07T12:06:10.045Z,8.07
2019-06-07T12:08:43.513Z,9.90
2019-06-07T12:11:35.242Z,7.83
2019-06-07T12:17:04.175Z,12.83
2019-06-07T12:20:14.803Z,7.67
2019-06-07T12:23:01.548Z,10.50
2019-06-07T12:32:11.138Z,9.90
2019-06-07T12:35:03.172Z,11.43
2019-06-07T12:37:53.448Z,10.33
2019-06-07T12:43:51.527Z,9.27
2019-06-07T12:46:26.759Z,11.00
2019-06-07T12:49:43.948Z,7.50
2019-06-07T12:56:06.450Z,6.80
2019-06-07T13:02:26.100Z,10.77
2019-06-07T13:05:23.989Z,8.03
2019-06-07T13:22:32.506Z,8.20
2019-06-07T13:26:03.751Z,8.27
2019-06-07T13:29:07.046Z,7.30
2019-06-07T14:24:58.374Z,5.17
2019-06-07T14:33:04.433Z,6.63
2019-06-07T17:18:02.758Z,2.23
2019-06-07T17:51:29.870Z,1.25
2019-06-07T18:00:27.775Z,1.17
2019-06-07T19:32:38.457Z,1.40
2019-06-07T19:54:35.290Z,2.00
2019-06-07T20:15:17.554Z,2.10
2019-06-07T20:50:53.709Z,2.80
2019-06-07T20:56:40.311Z,3.53
2019-06-07T21:38:44.858Z,4.00
2019-06-07T21:50:28.638Z,2.27
2019-06-07T22:04:37.549Z,4.47
2019-06-07T22:38:58.838Z,5.03
2019-06-07T23:31:23.295Z,3.30
